Time;durP1;ratioP1;P1;durP2;ratioP2;P2;SDS_P1;SDS_P2;PMS_P1;PMS_P2;Temp;Humidity;BMP_temperature;BMP_pressure;BME280_temperature;BME280_humidity;BME280_pressure;Samples;Min_cycle;Max_cycle;Signal;HPM_P1;HPM_P2
2024/03/26 00:02:16;;;;;;;10.93;4.45;;;;;;;;;;5112581;28;20149;-61
2024/03/26 00:04:41;;;;;;;12.13;4.70;;;;;;;;;;5103193;28;20074;-62
2024/03/26 00:07:07;;;;;;;12.70;4.75;;;;;;;;;;5092243;28;20058;-61
2024/03/26 00:09:32;;;;;;;9.43;4.28;;;;;;;;;;5092571;28;20024;-61
2024/03/26 00:11:58;;;;;;;11.90;5.07;;;;;;;;;;5089716;28;20683;-61
2024/03/26 00:14:23;;;;;;;7.88;4.80;;;;;;;;;;5096069;28;20016;-60
2024/03/26 00:16:48;;;;;;;10.23;4.82;;;;;;;;;;5109337;28;20335;-62
2024/03/26 00:19:14;;;;;;;7.80;4.22;;;;;;;;;;5112668;28;20026;-55
2024/03/26 00:21:39;;;;;;;9.45;4.45;;;;;;;;;;5112221;28;20182;-60
2024/03/26 00:24:05;;;;;;;8.73;4.40;;;;;;;;;;5108457;28;20027;-56
2024/03/26 00:26:31;;;;;;;7.60;3.60;;;;;;;;;;5091641;28;20028;-61
2024/03/26 00:28:56;;;;;;;11.02;4.53;;;;;;;;;;5090838;28;20027;-64
2024/03/26 00:31:22;;;;;;;12.43;4.38;;;;;;;;;;5091984;28;20024;-59
2024/03/26 00:33:47;;;;;;;9.50;4.38;;;;;;;;;;5091770;28;20035;-63
2024/03/26 00:36:12;;;;;;;9.57;4.00;;;;;;;;;;5111857;28;20055;-62
2024/03/26 00:38:38;;;;;;;8.38;5.18;;;;;;;;;;5112034;28;20043;-63
2024/03/26 00:41:03;;;;;;;11.13;5.00;;;;;;;;;;5111216;28;20072;-63
2024/03/26 00:43:29;;;;;;;8.98;4.80;;;;;;;;;;5113244;28;20306;-62
2024/03/26 00:45:54;;;;;;;10.77;5.35;;;;;;;;;;5097594;27;20028;-63
2024/03/26 00:48:20;;;;;;;9.85;5.30;;;;;;;;;;5094110;28;20035;-62
2024/03/26 00:50:45;;;;;;;12.20;5.78;;;;;;;;;;5077381;28;20016;-64
2024/03/26 00:53:11;;;;;;;12.55;6.30;;;;;;;;;;5095084;28;20044;-62
2024/03/26 00:55:36;;;;;;;14.52;6.03;;;;;;;;;;5109472;28;20335;-63
2024/03/26 00:58:02;;;;;;;10.60;6.22;;;;;;;;;;5114578;28;20031;-57
2024/03/26 01:00:27;;;;;;;13.43;6.10;;;;;;;;;;5115928;27;20350;-62
2024/03/26 01:02:52;;;;;;;12.05;6.28;;;;;;;;;;5114912;28;20077;-61
2024/03/26 01:05:18;;;;;;;10.23;6.07;;;;;;;;;;5102768;28;20117;-60
2024/03/26 01:07:43;;;;;;;12.60;6.38;;;;;;;;;;5094909;28;20077;-59
2024/03/26 01:10:08;;;;;;;10.68;5.97;;;;;;;;;;5095343;28;20418;-60
2024/03/26 01:12:34;;;;;;;11.38;6.03;;;;;;;;;;5095195;28;20024;-61
2024/03/26 01:14:59;;;;;;;11.45;6.20;;;;;;;;;;5095901;28;20093;-62
2024/03/26 01:17:25;;;;;;;11.23;6.10;;;;;;;;;;5095251;28;20066;-60
2024/03/26 01:19:50;;;;;;;12.18;6.15;;;;;;;;;;5095190;28;20020;-61
2024/03/26 01:22:15;;;;;;;10.70;5.88;;;;;;;;;;5093619;28;20393;-61
2024/03/26 01:24:41;;;;;;;11.35;6.28;;;;;;;;;;5101411;28;20080;-61
2024/03/26 01:27:15;;;;;;;14.40;6.65;;;;;;;;;;5115313;28;20047;-60
2024/03/26 01:29:41;;;;;;;15.57;6.80;;;;;;;;;;5115021;28;20062;-59
2024/03/26 01:32:07;;;;;;;10.50;6.07;;;;;;;;;;5114048;28;20051;-61
2024/03/26 01:34:32;;;;;;;15.55;6.47;;;;;;;;;;5112391;28;20031;-61
2024/03/26 01:36:57;;;;;;;11.80;6.38;;;;;;;;;;5114770;28;20027;-57
2024/03/26 01:39:23;;;;;;;13.95;6.88;;;;;;;;;;5113708;28;20453;-59
2024/03/26 01:41:48;;;;;;;11.55;6.05;;;;;;;;;;5113832;28;20103;-60
2024/03/26 01:44:13;;;;;;;14.57;6.63;;;;;;;;;;5106251;27;20386;-60
2024/03/26 01:46:39;;;;;;;12.73;6.28;;;;;;;;;;5094654;28;20052;-61
2024/03/26 01:49:05;;;;;;;14.27;5.93;;;;;;;;;;5092970;28;20328;-61
2024/03/26 01:51:31;;;;;;;9.60;6.07;;;;;;;;;;5094065;28;20042;-62
2024/03/26 01:53:57;;;;;;;15.77;6.30;;;;;;;;;;5099469;28;20047;-60
2024/03/26 01:56:23;;;;;;;14.27;6.22;;;;;;;;;;5114283;28;20035;-61
2024/03/26 01:58:49;;;;;;;13.77;6.78;;;;;;;;;;5100022;28;20053;-61
2024/03/26 02:01:14;;;;;;;12.80;6.13;;;;;;;;;;5093906;28;20024;-63
2024/03/26 02:03:40;;;;;;;9.40;5.78;;;;;;;;;;5093471;28;20338;-61
2024/03/26 02:06:05;;;;;;;11.60;6.47;;;;;;;;;;5094328;28;20106;-60
2024/03/26 02:08:31;;;;;;;12.82;6.57;;;;;;;;;;5100629;28;20038;-61
2024/03/26 02:10:56;;;;;;;13.82;6.65;;;;;;;;;;5112627;28;20046;-61
2024/03/26 02:13:22;;;;;;;12.32;7.10;;;;;;;;;;5096421;28;20319;-59
2024/03/26 02:15:48;;;;;;;15.10;7.18;;;;;;;;;;5100429;28;20040;-61
2024/03/26 02:18:13;;;;;;;16.30;7.55;;;;;;;;;;5100819;28;20032;-53
2024/03/26 02:20:39;;;;;;;12.95;6.60;;;;;;;;;;5114077;28;20012;-52
2024/03/26 02:23:04;;;;;;;17.50;7.35;;;;;;;;;;5096167;28;20064;-59
2024/03/26 02:25:29;;;;;;;11.40;6.80;;;;;;;;;;5114468;28;20035;-55
2024/03/26 02:27:55;;;;;;;15.48;8.02;;;;;;;;;;5108548;28;20035;-60
2024/03/26 02:30:20;;;;;;;14.57;6.95;;;;;;;;;;5093433;28;20423;-60
2024/03/26 02:32:46;;;;;;;13.35;7.38;;;;;;;;;;5092606;28;20023;-62
2024/03/26 02:35:11;;;;;;;15.35;7.72;;;;;;;;;;5094010;28;20441;-60
2024/03/26 02:37:36;;;;;;;15.07;7.70;;;;;;;;;;5110302;28;20035;-59
2024/03/26 02:40:03;;;;;;;15.85;7.18;;;;;;;;;;5093557;28;20024;-63
2024/03/26 02:42:29;;;;;;;17.23;7.70;;;;;;;;;;5093337;28;20024;-60
2024/03/26 02:44:54;;;;;;;14.90;7.95;;;;;;;;;;5092124;28;20027;-62
2024/03/26 02:47:20;;;;;;;15.57;7.85;;;;;;;;;;5093176;28;20028;-60
2024/03/26 02:49:45;;;;;;;15.57;8.00;;;;;;;;;;5112479;28;20400;-59
2024/03/26 02:52:11;;;;;;;13.10;7.72;;;;;;;;;;5112499;28;20030;-60
2024/03/26 02:54:36;;;;;;;16.65;7.38;;;;;;;;;;5113084;28;20075;-62
2024/03/26 02:57:02;;;;;;;14.32;7.85;;;;;;;;;;5104326;28;20351;-62
2024/03/26 02:59:27;;;;;;;18.13;8.75;;;;;;;;;;5109885;28;20023;-61
2024/03/26 03:01:53;;;;;;;15.55;7.90;;;;;;;;;;5112149;28;20019;-61
2024/03/26 03:04:18;;;;;;;15.73;8.63;;;;;;;;;;5113086;28;20338;-55
2024/03/26 03:06:43;;;;;;;14.70;8.43;;;;;;;;;;5112207;28;20053;-61
2024/03/26 03:09:12;;;;;;;17.50;9.25;;;;;;;;;;5111065;28;20081;-61
2024/03/26 03:11:37;;;;;;;12.30;8.45;;;;;;;;;;5112269;28;20430;-60
2024/03/26 03:14:03;;;;;;;14.65;8.30;;;;;;;;;;5113661;28;20034;-59
2024/03/26 03:16:28;;;;;;;11.93;8.43;;;;;;;;;;5113028;28;20068;-59
2024/03/26 03:18:54;;;;;;;18.52;8.68;;;;;;;;;;5095422;28;20063;-59
2024/03/26 03:21:19;;;;;;;20.52;9.45;;;;;;;;;;5074947;28;20024;-61
2024/03/26 03:23:44;;;;;;;14.68;8.90;;;;;;;;;;5092691;28;20032;-58
2024/03/26 03:26:10;;;;;;;14.45;8.68;;;;;;;;;;5091749;28;20012;-59
2024/03/26 03:28:35;;;;;;;14.30;8.15;;;;;;;;;;5106215;28;20027;-58
2024/03/26 03:31:01;;;;;;;17.20;8.73;;;;;;;;;;5113502;28;20019;-60
2024/03/26 03:33:26;;;;;;;14.85;9.18;;;;;;;;;;5111826;28;20350;-59
2024/03/26 03:35:51;;;;;;;14.80;8.88;;;;;;;;;;5107292;28;20048;-60
2024/03/26 03:38:17;;;;;;;15.05;8.90;;;;;;;;;;5101554;28;20039;-60
2024/03/26 03:40:42;;;;;;;18.58;9.50;;;;;;;;;;5112906;28;20108;-62
2024/03/26 03:43:07;;;;;;;16.25;10.02;;;;;;;;;;5112753;28;20020;-62
2024/03/26 03:45:33;;;;;;;18.25;10.57;;;;;;;;;;5112628;28;20430;-61
2024/03/26 03:47:58;;;;;;;20.38;10.40;;;;;;;;;;5105640;28;20078;-61
2024/03/26 03:50:24;;;;;;;16.45;10.43;;;;;;;;;;5092613;28;20020;-60
2024/03/26 03:52:49;;;;;;;16.33;9.95;;;;;;;;;;5091434;28;20048;-62
2024/03/26 03:55:15;;;;;;;19.95;10.05;;;;;;;;;;5091191;28;20106;-62
2024/03/26 03:57:40;;;;;;;20.30;9.95;;;;;;;;;;5096065;28;20083;-64
2024/03/26 04:00:07;;;;;;;19.92;10.48;;;;;;;;;;5112587;28;20023;-62
2024/03/26 04:02:32;;;;;;;20.65;10.88;;;;;;;;;;5111702;28;20119;-63
2024/03/26 04:04:58;;;;;;;17.20;9.90;;;;;;;;;;5111353;28;20982;-62
2024/03/26 04:07:23;;;;;;;18.67;9.45;;;;;;;;;;5107374;28;20512;-60
2024/03/26 04:09:51;;;;;;;16.17;10.15;;;;;;;;;;5092317;28;20020;-60
2024/03/26 04:12:16;;;;;;;19.70;9.05;;;;;;;;;;5091391;28;20571;-62
2024/03/26 04:14:42;;;;;;;16.38;8.98;;;;;;;;;;5091026;28;20032;-60
2024/03/26 04:17:07;;;;;;;17.00;8.38;;;;;;;;;;5096058;28;20117;-63
2024/03/26 04:19:32;;;;;;;17.02;8.77;;;;;;;;;;5115945;28;20039;-63
2024/03/26 04:21:58;;;;;;;15.07;7.72;;;;;;;;;;5115666;28;20019;-61
2024/03/26 04:24:23;;;;;;;16.25;8.25;;;;;;;;;;5116352;28;20047;-65
2024/03/26 04:26:48;;;;;;;15.25;8.00;;;;;;;;;;5114489;28;20030;-62
2024/03/26 04:29:14;;;;;;;17.00;8.05;;;;;;;;;;5095178;28;20030;-61
2024/03/26 04:31:39;;;;;;;18.77;7.95;;;;;;;;;;5096196;28;20439;-63
2024/03/26 04:34:05;;;;;;;14.55;7.32;;;;;;;;;;5094612;28;20147;-62
2024/03/26 04:36:30;;;;;;;13.40;6.78;;;;;;;;;;5094456;28;20035;-60
2024/03/26 04:38:55;;;;;;;13.75;7.45;;;;;;;;;;5112892;28;20047;-62
2024/03/26 04:41:21;;;;;;;12.35;7.50;;;;;;;;;;5109452;28;20415;-64
2024/03/26 04:43:46;;;;;;;16.92;7.80;;;;;;;;;;5110010;28;20024;-63
2024/03/26 04:46:12;;;;;;;10.20;7.07;;;;;;;;;;5111795;27;20058;-64
2024/03/26 04:48:37;;;;;;;11.95;7.88;;;;;;;;;;5106330;28;20018;-64
2024/03/26 04:51:03;;;;;;;13.43;7.15;;;;;;;;;;5101466;28;20024;-63
2024/03/26 04:53:28;;;;;;;12.55;7.68;;;;;;;;;;5093851;28;20075;-63
2024/03/26 04:55:53;;;;;;;15.35;7.05;;;;;;;;;;5095290;28;20397;-64
2024/03/26 04:58:19;;;;;;;10.70;6.47;;;;;;;;;;5099688;28;20027;-62
2024/03/26 05:00:47;;;;;;;12.02;6.55;;;;;;;;;;5114446;28;20533;-63
2024/03/26 05:03:12;;;;;;;15.70;6.35;;;;;;;;;;5106029;28;20043;-66
2024/03/26 05:05:38;;;;;;;10.82;6.88;;;;;;;;;;5095344;28;20486;-61
2024/03/26 05:08:03;;;;;;;11.35;6.82;;;;;;;;;;5079383;28;20023;-65
2024/03/26 05:10:29;;;;;;;10.30;6.10;;;;;;;;;;5095132;28;20024;-63
2024/03/26 05:12:55;;;;;;;17.05;6.90;;;;;;;;;;5101017;28;20023;-64
2024/03/26 05:15:20;;;;;;;15.43;6.85;;;;;;;;;;5096771;28;20024;-64
2024/03/26 05:17:45;;;;;;;14.73;6.50;;;;;;;;;;5094750;28;20069;-64
2024/03/26 05:20:11;;;;;;;17.45;6.30;;;;;;;;;;5095855;28;20031;-66
2024/03/26 05:22:36;;;;;;;14.98;6.95;;;;;;;;;;5103523;28;20411;-65
2024/03/26 05:25:02;;;;;;;17.98;6.97;;;;;;;;;;5093452;28;20032;-63
2024/03/26 05:27:30;;;;;;;16.60;6.07;;;;;;;;;;5095290;28;20019;-63
2024/03/26 05:29:55;;;;;;;11.32;6.38;;;;;;;;;;5111886;28;20080;-63
2024/03/26 05:32:21;;;;;;;16.20;6.75;;;;;;;;;;5111363;28;20031;-63
2024/03/26 05:34:47;;;;;;;9.55;5.60;;;;;;;;;;5093810;28;20035;-64
2024/03/26 05:37:12;;;;;;;9.70;5.68;;;;;;;;;;5096541;28;20016;-63
2024/03/26 05:39:37;;;;;;;13.98;6.75;;;;;;;;;;5078304;28;20064;-63
2024/03/26 05:42:03;;;;;;;10.98;6.38;;;;;;;;;;5111671;28;20024;-63
2024/03/26 05:44:28;;;;;;;12.77;6.45;;;;;;;;;;5095131;28;20387;-65
2024/03/26 05:46:54;;;;;;;18.88;6.20;;;;;;;;;;5093578;28;20081;-63
2024/03/26 05:49:19;;;;;;;16.35;6.45;;;;;;;;;;5076790;28;20085;-64
2024/03/26 05:51:45;;;;;;;15.55;5.80;;;;;;;;;;5102842;28;20027;-64
2024/03/26 05:54:10;;;;;;;14.70;6.43;;;;;;;;;;5096529;28;20035;-64
2024/03/26 05:56:36;;;;;;;17.65;6.68;;;;;;;;;;5087598;28;20039;-64
2024/03/26 05:59:01;;;;;;;15.32;6.38;;;;;;;;;;5093918;28;20028;-64
2024/03/26 06:01:27;;;;;;;17.77;6.80;;;;;;;;;;5093894;28;20178;-63
2024/03/26 06:03:53;;;;;;;15.15;6.80;;;;;;;;;;5094114;28;20024;-64
2024/03/26 06:06:18;;;;;;;11.82;6.05;;;;;;;;;;5094882;28;20142;-64
2024/03/26 06:08:44;;;;;;;16.58;6.57;;;;;;;;;;5095453;28;20099;-65
2024/03/26 06:11:09;;;;;;;16.85;6.40;;;;;;;;;;5094898;28;20072;-63
2024/03/26 06:13:34;;;;;;;16.75;6.18;;;;;;;;;;5077513;28;20046;-62
2024/03/26 06:16:07;;;;;;;13.70;6.03;;;;;;;;;;5091140;28;20023;-63
2024/03/26 06:18:33;;;;;;;15.55;6.20;;;;;;;;;;5098826;28;20405;-63
2024/03/26 06:20:58;;;;;;;12.23;5.78;;;;;;;;;;5102218;28;20016;-63
2024/03/26 06:23:23;;;;;;;14.75;5.85;;;;;;;;;;5109125;28;20438;-63
2024/03/26 06:25:49;;;;;;;11.27;5.65;;;;;;;;;;5113794;28;20127;-64
2024/03/26 06:28:14;;;;;;;15.95;6.28;;;;;;;;;;5112989;28;20020;-64
2024/03/26 06:30:40;;;;;;;22.65;7.25;;;;;;;;;;5106631;28;20354;-64
2024/03/26 06:33:05;;;;;;;14.73;5.20;;;;;;;;;;5091818;28;20100;-64
2024/03/26 06:35:31;;;;;;;15.98;6.20;;;;;;;;;;5093306;28;20024;-66
2024/03/26 06:37:56;;;;;;;15.40;6.00;;;;;;;;;;5093868;28;20119;-65
2024/03/26 06:40:22;;;;;;;11.77;6.13;;;;;;;;;;5111442;28;20031;-64
2024/03/26 06:42:47;;;;;;;17.63;6.70;;;;;;;;;;5113192;28;20034;-63
2024/03/26 06:45:12;;;;;;;16.15;6.22;;;;;;;;;;5113854;28;20019;-66
2024/03/26 06:47:38;;;;;;;15.60;6.28;;;;;;;;;;5113507;28;20073;-64
2024/03/26 06:50:03;;;;;;;17.95;5.90;;;;;;;;;;5113599;28;20345;-64
2024/03/26 06:52:28;;;;;;;13.15;4.78;;;;;;;;;;5095336;28;20020;-62
2024/03/26 06:54:54;;;;;;;13.10;4.80;;;;;;;;;;5113278;28;20331;-64
2024/03/26 06:57:20;;;;;;;4.97;3.55;;;;;;;;;;5113715;28;20122;-64
2024/03/26 06:59:45;;;;;;;11.00;3.95;;;;;;;;;;5113425;28;20061;-63
2024/03/26 07:02:10;;;;;;;8.57;4.03;;;;;;;;;;5112014;28;20357;-63
2024/03/26 07:04:36;;;;;;;16.48;5.90;;;;;;;;;;5113404;28;20055;-63
2024/03/26 07:07:01;;;;;;;14.23;5.72;;;;;;;;;;5113099;28;20019;-64
2024/03/26 07:09:26;;;;;;;15.93;4.70;;;;;;;;;;5113013;27;20023;-64
2024/03/26 07:11:52;;;;;;;12.45;3.88;;;;;;;;;;5112263;28;20024;-64
2024/03/26 07:14:19;;;;;;;11.32;3.78;;;;;;;;;;5103761;28;20027;-65
2024/03/26 07:16:48;;;;;;;8.70;3.45;;;;;;;;;;5092661;28;20019;-65
2024/03/26 07:19:13;;;;;;;8.77;3.17;;;;;;;;;;5092381;28;20027;-62
2024/03/26 07:21:39;;;;;;;8.98;3.17;;;;;;;;;;5091714;28;20024;-64
2024/03/26 07:24:05;;;;;;;9.05;3.20;;;;;;;;;;5091272;28;20015;-63
2024/03/26 07:26:31;;;;;;;5.90;3.17;;;;;;;;;;5074177;28;20020;-64
2024/03/26 07:28:56;;;;;;;6.15;3.20;;;;;;;;;;5092360;28;20048;-64
2024/03/26 07:31:22;;;;;;;6.18;2.90;;;;;;;;;;5091649;28;20028;-63
2024/03/26 07:33:48;;;;;;;9.85;2.70;;;;;;;;;;5092351;28;20034;-63
2024/03/26 07:36:13;;;;;;;7.47;2.50;;;;;;;;;;5090930;28;20024;-62
2024/03/26 07:38:38;;;;;;;10.48;2.38;;;;;;;;;;5091399;28;20101;-64
2024/03/26 07:41:04;;;;;;;7.28;2.22;;;;;;;;;;5091210;28;20387;-64
2024/03/26 07:43:29;;;;;;;4.95;2.13;;;;;;;;;;5092521;28;20028;-64
2024/03/26 07:45:55;;;;;;;5.82;2.17;;;;;;;;;;5090446;28;20111;-65
2024/03/26 07:48:20;;;;;;;6.00;3.08;;;;;;;;;;5074373;28;20020;-65
2024/03/26 07:50:46;;;;;;;6.25;2.40;;;;;;;;;;5091632;28;20020;-63
2024/03/26 07:53:11;;;;;;;7.55;2.55;;;;;;;;;;5093362;28;20153;-64
2024/03/26 07:55:37;;;;;;;5.95;2.72;;;;;;;;;;5067273;28;20036;-63
2024/03/26 07:58:04;;;;;;;8.02;2.42;;;;;;;;;;5078905;28;20036;-65
2024/03/26 08:00:29;;;;;;;6.78;2.38;;;;;;;;;;5095396;28;20020;-64
2024/03/26 08:02:54;;;;;;;5.63;2.55;;;;;;;;;;5094840;28;20115;-64
2024/03/26 08:05:20;;;;;;;7.30;2.28;;;;;;;;;;5096097;28;20064;-63
2024/03/26 08:07:45;;;;;;;4.53;2.00;;;;;;;;;;5096146;28;20024;-65
2024/03/26 08:10:11;;;;;;;4.93;2.30;;;;;;;;;;5095228;28;20016;-64
2024/03/26 08:12:37;;;;;;;8.45;2.10;;;;;;;;;;5095969;28;20024;-64
2024/03/26 08:15:03;;;;;;;6.45;2.30;;;;;;;;;;5095079;28;20028;-64
2024/03/26 08:17:31;;;;;;;4.32;2.00;;;;;;;;;;5095806;28;20035;-64
2024/03/26 08:19:56;;;;;;;2.90;1.70;;;;;;;;;;5095029;28;20437;-64
2024/03/26 08:22:22;;;;;;;5.40;2.38;;;;;;;;;;5078344;28;20115;-63
2024/03/26 08:24:47;;;;;;;6.32;2.30;;;;;;;;;;5077747;28;20032;-65
2024/03/26 08:27:12;;;;;;;4.95;1.98;;;;;;;;;;5094659;28;20043;-63
2024/03/26 08:29:38;;;;;;;8.73;2.58;;;;;;;;;;5094520;28;20060;-64
2024/03/26 08:32:03;;;;;;;4.72;1.95;;;;;;;;;;5077263;28;20125;-64
2024/03/26 08:34:29;;;;;;;6.70;2.20;;;;;;;;;;5094214;28;20028;-64
2024/03/26 08:36:55;;;;;;;6.72;1.95;;;;;;;;;;5095514;28;20028;-64
2024/03/26 08:39:21;;;;;;;3.13;1.55;;;;;;;;;;5095492;28;20570;-65
2024/03/26 08:41:46;;;;;;;6.50;2.30;;;;;;;;;;5095309;28;20111;-63
2024/03/26 08:44:12;;;;;;;7.68;2.08;;;;;;;;;;5094221;28;20032;-62
2024/03/26 08:46:37;;;;;;;5.72;2.15;;;;;;;;;;5077425;28;20057;-63
2024/03/26 08:49:03;;;;;;;6.72;2.20;;;;;;;;;;5094139;28;20031;-64
2024/03/26 08:51:29;;;;;;;10.05;2.67;;;;;;;;;;5095301;28;20027;-65
2024/03/26 08:53:58;;;;;;;4.38;2.13;;;;;;;;;;5077059;28;20070;-66
2024/03/26 08:56:24;;;;;;;3.63;2.15;;;;;;;;;;5094072;28;20028;-64
2024/03/26 08:58:53;;;;;;;8.98;2.10;;;;;;;;;;5094124;28;20036;-65
2024/03/26 09:01:18;;;;;;;4.47;1.98;;;;;;;;;;5095429;28;20023;-64
2024/03/26 09:03:44;;;;;;;5.55;2.28;;;;;;;;;;5094364;28;20080;-65
2024/03/26 09:06:09;;;;;;;7.32;2.53;;;;;;;;;;5095059;28;20028;-65
2024/03/26 09:08:35;;;;;;;7.80;2.30;;;;;;;;;;5094068;28;20105;-64
2024/03/26 09:11:00;;;;;;;5.55;2.42;;;;;;;;;;5094620;28;20122;-64
2024/03/26 09:13:26;;;;;;;5.35;2.20;;;;;;;;;;5090340;28;20089;-64
2024/03/26 09:15:51;;;;;;;6.53;2.05;;;;;;;;;;5073636;28;20410;-65
2024/03/26 09:18:17;;;;;;;5.82;2.10;;;;;;;;;;5074377;28;20043;-64
2024/03/26 09:20:42;;;;;;;7.93;2.67;;;;;;;;;;5073266;28;20024;-63
2024/03/26 09:23:07;;;;;;;4.78;2.22;;;;;;;;;;5074138;28;20013;-63
2024/03/26 09:25:33;;;;;;;5.18;1.98;;;;;;;;;;5074570;28;20012;-64
2024/03/26 09:27:58;;;;;;;4.97;2.35;;;;;;;;;;5074657;28;20107;-62
2024/03/26 09:30:27;;;;;;;4.53;2.20;;;;;;;;;;5074243;28;20021;-65
2024/03/26 09:32:55;;;;;;;6.05;2.53;;;;;;;;;;5074272;28;20425;-64
2024/03/26 09:35:21;;;;;;;7.70;2.70;;;;;;;;;;5074842;28;20055;-64
2024/03/26 09:37:47;;;;;;;6.28;2.70;;;;;;;;;;5074626;28;20045;-63
2024/03/26 09:40:13;;;;;;;9.10;2.80;;;;;;;;;;5073069;28;20020;-64
2024/03/26 09:42:40;;;;;;;3.22;2.55;;;;;;;;;;5074079;28;20424;-62
2024/03/26 09:45:07;;;;;;;7.32;3.60;;;;;;;;;;5074366;28;20037;-64
2024/03/26 09:47:34;;;;;;;6.22;2.75;;;;;;;;;;5074514;28;20026;-64
2024/03/26 09:50:01;;;;;;;5.15;3.03;;;;;;;;;;5072678;28;20020;-63
2024/03/26 09:52:29;;;;;;;8.23;2.97;;;;;;;;;;5074220;28;20039;-64
2024/03/26 09:54:55;;;;;;;6.18;3.25;;;;;;;;;;5074024;28;20079;-63
2024/03/26 09:57:20;;;;;;;5.78;3.00;;;;;;;;;;5057152;28;20067;-64
2024/03/26 09:59:46;;;;;;;3.88;2.70;;;;;;;;;;5073573;28;20028;-64
2024/03/26 10:02:12;;;;;;;6.03;2.60;;;;;;;;;;5073489;28;20479;-63
2024/03/26 10:04:38;;;;;;;7.88;2.70;;;;;;;;;;5073876;28;20050;-63
2024/03/26 10:07:04;;;;;;;4.43;2.50;;;;;;;;;;5056250;28;20435;-65
2024/03/26 10:09:30;;;;;;;3.15;2.40;;;;;;;;;;5055939;28;20032;-63
2024/03/26 10:11:55;;;;;;;8.00;3.15;;;;;;;;;;5073389;28;20013;-63
2024/03/26 10:14:21;;;;;;;4.82;2.70;;;;;;;;;;5074063;28;20031;-63
2024/03/26 10:16:47;;;;;;;4.53;2.83;;;;;;;;;;5072895;28;20019;-64
2024/03/26 10:19:12;;;;;;;7.80;3.05;;;;;;;;;;5055317;28;20040;-65
2024/03/26 10:21:44;;;;;;;8.98;3.10;;;;;;;;;;5073282;28;20365;-63
2024/03/26 10:24:09;;;;;;;5.35;2.55;;;;;;;;;;5072914;28;20055;-64
2024/03/26 10:26:35;;;;;;;6.60;3.10;;;;;;;;;;5101204;28;20040;-62
2024/03/26 10:29:00;;;;;;;9.65;3.25;;;;;;;;;;5092706;28;20449;-68
2024/03/26 10:31:25;;;;;;;5.43;3.10;;;;;;;;;;5089002;28;20103;-62
2024/03/26 10:33:51;;;;;;;9.00;3.33;;;;;;;;;;5093279;28;20020;-62
2024/03/26 10:36:16;;;;;;;6.60;2.60;;;;;;;;;;5096039;28;20074;-61
2024/03/26 10:38:42;;;;;;;4.50;2.80;;;;;;;;;;5088526;28;20043;-64
2024/03/26 10:41:20;;;;;;;7.32;2.63;;;;;;;;;;5092374;28;20020;-62
2024/03/26 10:43:46;;;;;;;9.25;2.47;;;;;;;;;;5091808;28;20105;-61
2024/03/26 10:46:12;;;;;;;6.45;2.80;;;;;;;;;;5093756;28;20032;-60
2024/03/26 10:48:38;;;;;;;11.85;2.97;;;;;;;;;;5103420;28;20357;-61
2024/03/26 10:51:04;;;;;;;6.07;2.70;;;;;;;;;;5096465;28;20027;-57
2024/03/26 10:53:29;;;;;;;4.35;2.22;;;;;;;;;;5092034;28;20109;-67
2024/03/26 10:55:58;;;;;;;5.13;2.22;;;;;;;;;;5101709;28;20038;-63
2024/03/26 10:58:23;;;;;;;6.60;2.63;;;;;;;;;;5102575;28;20065;-63
2024/03/26 11:00:50;;;;;;;4.18;2.33;;;;;;;;;;5092183;28;20086;-64
2024/03/26 11:03:16;;;;;;;8.30;2.47;;;;;;;;;;5092746;28;20034;-63
2024/03/26 11:05:42;;;;;;;7.20;2.65;;;;;;;;;;5098199;28;20114;-63
2024/03/26 11:08:17;;;;;;;6.60;2.45;;;;;;;;;;5112619;28;20023;-63
2024/03/26 11:11:02;;;;;;;6.30;2.35;;;;;;;;;;5112770;28;20023;-63
2024/03/26 11:13:30;;;;;;;6.78;1.98;;;;;;;;;;5101025;28;20032;-64
2024/03/26 11:15:55;;;;;;;5.78;2.15;;;;;;;;;;5093246;28;20020;-63
2024/03/26 11:18:33;;;;;;;5.90;2.35;;;;;;;;;;5074725;28;20413;-62
2024/03/26 11:21:06;;;;;;;5.90;2.05;;;;;;;;;;5092462;28;20028;-62
2024/03/26 11:23:35;;;;;;;4.63;1.95;;;;;;;;;;5090349;28;20344;-62
2024/03/26 11:26:01;;;;;;;3.45;2.30;;;;;;;;;;5092726;28;20043;-63
2024/03/26 11:28:34;;;;;;;3.97;2.30;;;;;;;;;;5092530;28;20427;-65
2024/03/26 11:31:01;;;;;;;8.60;2.70;;;;;;;;;;5091493;28;20076;-58
2024/03/26 11:33:27;;;;;;;6.55;2.55;;;;;;;;;;5091142;28;20099;-59
2024/03/26 11:35:53;;;;;;;8.95;2.90;;;;;;;;;;5103260;28;20020;-58
2024/03/26 11:38:19;;;;;;;3.35;2.13;;;;;;;;;;5108520;28;20039;-61
2024/03/26 11:40:46;;;;;;;12.68;2.40;;;;;;;;;;5092287;28;20274;-62
2024/03/26 11:43:12;;;;;;;5.88;2.20;;;;;;;;;;5090334;28;20396;-62
2024/03/26 11:45:40;;;;;;;6.63;2.08;;;;;;;;;;5089968;28;20062;-60
2024/03/26 11:48:06;;;;;;;5.60;1.67;;;;;;;;;;5090804;28;20462;-62
2024/03/26 11:50:32;;;;;;;5.78;1.90;;;;;;;;;;5091344;28;20038;-63
2024/03/26 11:52:58;;;;;;;5.97;1.98;;;;;;;;;;5055710;28;20048;-55
2024/03/26 11:55:25;;;;;;;4.80;1.95;;;;;;;;;;5088624;28;20028;-61
2024/03/26 11:57:51;;;;;;;5.30;2.10;;;;;;;;;;5094470;28;20390;-55
2024/03/26 12:00:23;;;;;;;4.40;2.40;;;;;;;;;;5098936;28;20081;-56
2024/03/26 12:02:48;;;;;;;6.57;2.15;;;;;;;;;;5103648;28;20027;-58
2024/03/26 12:05:14;;;;;;;7.70;1.95;;;;;;;;;;5089964;28;20024;-57
2024/03/26 12:07:40;;;;;;;4.55;2.05;;;;;;;;;;5091446;28;20024;-58
2024/03/26 12:10:06;;;;;;;4.15;1.40;;;;;;;;;;5093375;28;20118;-63
2024/03/26 12:12:36;;;;;;;2.85;1.67;;;;;;;;;;5088528;28;20020;-57
2024/03/26 12:15:05;;;;;;;4.63;2.03;;;;;;;;;;5088478;28;20103;-63
2024/03/26 12:17:30;;;;;;;4.38;1.27;;;;;;;;;;5090527;28;20024;-64
2024/03/26 12:19:56;;;;;;;5.30;2.13;;;;;;;;;;5091647;28;20036;-65
2024/03/26 12:22:23;;;;;;;7.28;2.20;;;;;;;;;;5070704;28;20008;-64
2024/03/26 12:24:49;;;;;;;3.85;1.95;;;;;;;;;;5089913;28;20012;-65
2024/03/26 12:27:14;;;;;;;6.15;2.13;;;;;;;;;;5090456;28;20012;-64
2024/03/26 12:29:40;;;;;;;6.30;1.83;;;;;;;;;;5090006;28;20112;-62
2024/03/26 12:32:06;;;;;;;7.03;2.47;;;;;;;;;;5076048;28;20069;-61
2024/03/26 12:34:32;;;;;;;7.28;2.03;;;;;;;;;;5090769;28;20016;-61
2024/03/26 12:36:58;;;;;;;4.80;2.17;;;;;;;;;;5106525;28;20435;-64
2024/03/26 12:39:23;;;;;;;6.22;2.17;;;;;;;;;;5111439;28;20065;-65
2024/03/26 12:41:49;;;;;;;4.03;1.95;;;;;;;;;;5114840;28;20072;-62
2024/03/26 12:44:15;;;;;;;6.85;2.17;;;;;;;;;;5105107;28;20031;-61
2024/03/26 12:46:40;;;;;;;6.72;2.25;;;;;;;;;;5094358;28;20020;-62
2024/03/26 12:49:06;;;;;;;5.47;2.50;;;;;;;;;;5093498;28;20040;-59
2024/03/26 12:51:32;;;;;;;4.72;2.47;;;;;;;;;;5094440;28;20082;-61
2024/03/26 12:54:05;;;;;;;4.38;2.40;;;;;;;;;;5093068;28;20515;-61
2024/03/26 12:56:31;;;;;;;5.30;2.50;;;;;;;;;;5095449;28;20107;-59
2024/03/26 12:58:57;;;;;;;5.75;2.30;;;;;;;;;;5094450;28;20028;-56
2024/03/26 13:01:23;;;;;;;5.03;2.30;;;;;;;;;;5092848;28;20024;-62
2024/03/26 13:03:48;;;;;;;5.85;2.35;;;;;;;;;;5093954;28;20343;-60
2024/03/26 13:06:13;;;;;;;6.10;2.35;;;;;;;;;;5098852;28;20059;-62
2024/03/26 13:08:39;;;;;;;7.05;2.47;;;;;;;;;;5113480;28;20046;-61
2024/03/26 13:11:04;;;;;;;4.88;2.38;;;;;;;;;;5114458;28;20157;-62
2024/03/26 13:13:30;;;;;;;4.63;1.70;;;;;;;;;;5114201;28;20655;-64
2024/03/26 13:15:55;;;;;;;3.53;1.85;;;;;;;;;;5087418;28;20039;-63
2024/03/26 13:18:21;;;;;;;5.90;1.58;;;;;;;;;;5115407;28;20148;-63
2024/03/26 13:20:46;;;;;;;6.05;1.90;;;;;;;;;;5113994;28;20344;-62
2024/03/26 13:23:12;;;;;;;3.80;1.63;;;;;;;;;;5114429;27;20069;-61
2024/03/26 13:25:37;;;;;;;6.10;1.70;;;;;;;;;;5111499;28;20035;-60
2024/03/26 13:28:02;;;;;;;6.43;1.98;;;;;;;;;;5093139;28;20472;-62
2024/03/26 13:30:28;;;;;;;6.38;1.70;;;;;;;;;;5093801;28;20038;-63
2024/03/26 13:32:54;;;;;;;7.60;2.08;;;;;;;;;;5094782;28;20046;-64
2024/03/26 13:35:20;;;;;;;3.20;1.67;;;;;;;;;;5092776;28;20063;-62
2024/03/26 13:37:45;;;;;;;5.72;1.92;;;;;;;;;;5094077;28;20458;-62
2024/03/26 13:40:11;;;;;;;11.77;2.20;;;;;;;;;;5091454;28;20027;-63
2024/03/26 13:42:36;;;;;;;8.60;1.85;;;;;;;;;;5093453;28;20020;-63
2024/03/26 13:45:02;;;;;;;2.95;1.50;;;;;;;;;;5095795;28;20039;-62
2024/03/26 13:47:32;;;;;;;10.07;1.98;;;;;;;;;;5092681;28;20058;-62
2024/03/26 13:49:57;;;;;;;6.22;1.92;;;;;;;;;;5094025;28;20032;-59
2024/03/26 13:52:23;;;;;;;7.40;2.05;;;;;;;;;;5093585;28;20142;-60
2024/03/26 13:54:50;;;;;;;4.60;1.83;;;;;;;;;;5093555;28;20459;-59
2024/03/26 13:57:26;;;;;;;5.70;2.17;;;;;;;;;;5094609;28;20450;-61
2024/03/26 13:59:52;;;;;;;3.60;1.80;;;;;;;;;;5093740;28;20323;-64
2024/03/26 14:02:21;;;;;;;8.95;2.30;;;;;;;;;;5093295;28;20024;-63
2024/03/26 14:04:46;;;;;;;3.63;1.55;;;;;;;;;;5100027;28;20452;-63
2024/03/26 14:07:12;;;;;;;6.40;1.83;;;;;;;;;;5104295;28;20020;-62
2024/03/26 14:09:40;;;;;;;6.03;2.00;;;;;;;;;;5093675;28;20100;-63
2024/03/26 14:12:07;;;;;;;5.15;1.77;;;;;;;;;;5092849;28;20024;-62
2024/03/26 14:14:36;;;;;;;6.78;1.92;;;;;;;;;;5095369;28;20084;-63
2024/03/26 14:17:01;;;;;;;5.93;2.15;;;;;;;;;;5112804;28;20019;-63
2024/03/26 14:19:27;;;;;;;4.97;1.60;;;;;;;;;;5110071;28;20089;-62
2024/03/26 14:21:53;;;;;;;8.07;1.90;;;;;;;;;;5108212;28;20028;-64
2024/03/26 14:24:18;;;;;;;5.53;1.70;;;;;;;;;;5113655;28;20102;-64
2024/03/26 14:26:59;;;;;;;6.85;1.50;;;;;;;;;;5108013;28;20115;-61
2024/03/26 14:29:24;;;;;;;3.92;1.70;;;;;;;;;;5094983;28;20031;-59